Time;durP1;ratioP1;P1;durP2;ratioP2;P2;SDS_P1;SDS_P2;PMS_P1;PMS_P2;Temp;Humidity;BMP_temperature;BMP_pressure;BME280_temperature;BME280_humidity;BME280_pressure;Samples;Min_cycle;Max_cycle;Signal;HPM_P1;HPM_P2
2023/12/19 00:01:08;;;;;;;0.30;0.20;;;3.90;99.90;;;;;;5071072;28;20806;-76
2023/12/19 00:03:34;;;;;;;0.30;0.30;;;3.90;99.90;;;;;;5070844;28;20240;-77
2023/12/19 00:06:00;;;;;;;0.30;0.30;;;3.90;99.90;;;;;;5070442;28;20193;-78
2023/12/19 00:08:26;;;;;;;0.30;0.20;;;3.90;99.90;;;;;;5071058;28;20267;-76
2023/12/19 00:10:52;;;;;;;0.30;0.20;;;3.90;99.90;;;;;;5070161;28;20173;-78
2023/12/19 00:13:17;;;;;;;0.30;0.20;;;3.90;99.90;;;;;;5069963;28;20256;-78
2023/12/19 00:15:43;;;;;;;0.50;0.50;;;3.90;99.90;;;;;;5069302;28;20620;-76
2023/12/19 00:18:09;;;;;;;0.30;0.20;;;3.80;99.90;;;;;;5070448;28;20316;-76
2023/12/19 00:20:34;;;;;;;0.60;0.60;;;3.80;99.90;;;;;;5085690;28;20817;-78
2023/12/19 00:23:00;;;;;;;0.30;0.30;;;3.80;99.90;;;;;;5070412;28;20442;-77
2023/12/19 00:25:29;;;;;;;0.30;0.30;;;3.80;99.90;;;;;;5069202;28;20193;-78
2023/12/19 00:27:55;;;;;;;0.30;0.20;;;3.70;99.90;;;;;;5070108;28;20201;-76
2023/12/19 00:30:21;;;;;;;0.30;0.30;;;3.70;99.90;;;;;;5070163;28;20427;-77
2023/12/19 00:32:47;;;;;;;1.80;1.80;;;3.70;99.90;;;;;;5069892;28;20461;-78
2023/12/19 00:35:12;;;;;;;1.03;1.03;;;3.70;99.90;;;;;;5085444;28;20181;-77
2023/12/19 00:37:38;;;;;;;0.30;0.30;;;3.60;99.90;;;;;;5084458;28;20188;-76
2023/12/19 00:40:05;;;;;;;0.30;0.30;;;3.50;99.90;;;;;;5085154;28;20535;-77
2023/12/19 00:42:31;;;;;;;0.30;0.30;;;3.50;99.90;;;;;;5070025;28;20413;-76
2023/12/19 00:44:57;;;;;;;0.30;0.20;;;3.40;99.90;;;;;;5070098;28;20185;-76
2023/12/19 00:47:22;;;;;;;0.30;0.20;;;3.40;99.90;;;;;;5085180;28;20521;-78
2023/12/19 00:49:48;;;;;;;0.30;0.30;;;3.30;99.90;;;;;;5069899;28;20189;-78
2023/12/19 00:52:14;;;;;;;0.30;0.20;;;3.30;99.90;;;;;;5069835;28;20203;-76
2023/12/19 00:54:39;;;;;;;0.30;0.20;;;3.20;99.90;;;;;;5069982;28;20315;-76
2023/12/19 00:57:05;;;;;;;0.30;0.20;;;3.20;99.90;;;;;;5069572;28;20380;-78
2023/12/19 00:59:31;;;;;;;0.30;0.30;;;3.20;99.90;;;;;;5085619;28;20577;-78
2023/12/19 01:01:57;;;;;;;0.30;0.20;;;3.20;99.90;;;;;;5069498;28;20169;-76
2023/12/19 01:04:23;;;;;;;0.30;0.30;;;3.20;99.90;;;;;;5085432;28;20207;-76
2023/12/19 01:06:48;;;;;;;0.30;0.30;;;3.20;99.90;;;;;;5069653;28;20544;-78
2023/12/19 01:09:14;;;;;;;0.30;0.30;;;3.20;99.90;;;;;;5069798;28;20205;-76
2023/12/19 01:11:39;;;;;;;0.30;0.30;;;3.20;99.90;;;;;;5069181;28;20176;-76
2023/12/19 01:14:05;;;;;;;0.30;0.30;;;3.10;99.90;;;;;;5069584;28;20221;-77
2023/12/19 01:16:31;;;;;;;0.30;0.30;;;3.10;99.90;;;;;;5069333;28;20236;-78
2023/12/19 01:18:57;;;;;;;0.30;0.30;;;3.10;99.90;;;;;;5069587;28;20449;-78
2023/12/19 01:21:22;;;;;;;0.30;0.30;;;3.10;99.90;;;;;;5069450;28;20234;-76
2023/12/19 01:23:48;;;;;;;0.30;0.30;;;3.10;99.90;;;;;;5085102;28;20711;-78
2023/12/19 01:26:14;;;;;;;0.30;0.30;;;3.00;99.90;;;;;;5067981;28;20200;-76
2023/12/19 01:28:39;;;;;;;0.30;0.30;;;3.00;99.90;;;;;;5085150;28;20330;-78
2023/12/19 01:31:05;;;;;;;0.30;0.30;;;3.00;99.90;;;;;;5069482;28;20525;-78
2023/12/19 01:33:31;;;;;;;0.30;0.30;;;3.00;99.90;;;;;;5069878;28;20224;-78
2023/12/19 01:35:57;;;;;;;0.30;0.23;;;3.00;99.90;;;;;;5069047;28;20406;-76
2023/12/19 01:38:22;;;;;;;0.30;0.30;;;3.00;99.90;;;;;;5069631;28;20455;-76
2023/12/19 01:40:48;;;;;;;0.30;0.30;;;3.00;99.90;;;;;;5083702;28;20476;-78
2023/12/19 01:43:21;;;;;;;0.30;0.30;;;3.00;99.90;;;;;;5084693;28;20197;-78
2023/12/19 01:45:48;;;;;;;0.30;0.30;;;3.00;99.90;;;;;;5085002;28;20209;-76
2023/12/19 01:48:15;;;;;;;0.30;0.20;;;2.90;99.90;;;;;;5072048;28;20193;-78
2023/12/19 01:50:41;;;;;;;0.30;0.30;;;2.90;99.90;;;;;;5071992;28;20196;-78
2023/12/19 01:53:08;;;;;;;0.30;0.30;;;3.00;99.90;;;;;;5071521;28;20224;-76
2023/12/19 01:55:33;;;;;;;0.30;0.20;;;3.00;99.90;;;;;;5088581;28;20689;-77
2023/12/19 01:58:00;;;;;;;0.30;0.20;;;3.00;99.90;;;;;;5073144;28;20201;-76
2023/12/19 02:00:26;;;;;;;0.30;0.30;;;3.00;99.90;;;;;;5088506;28;20405;-76
2023/12/19 02:02:52;;;;;;;0.30;0.20;;;3.00;99.90;;;;;;5088695;28;20258;-78
2023/12/19 02:05:19;;;;;;;0.30;0.30;;;3.00;99.90;;;;;;5072867;28;20536;-76
2023/12/19 02:07:45;;;;;;;0.30;0.20;;;3.00;99.90;;;;;;5088432;28;20177;-77
2023/12/19 02:10:11;;;;;;;0.30;0.20;;;2.90;99.90;;;;;;5072760;28;20273;-77
2023/12/19 02:12:38;;;;;;;0.30;0.30;;;2.90;99.90;;;;;;5072657;28;20208;-78
2023/12/19 02:15:05;;;;;;;0.30;0.30;;;2.90;99.90;;;;;;5072173;28;20157;-76
2023/12/19 02:17:31;;;;;;;0.30;0.30;;;2.90;99.90;;;;;;5088217;28;21079;-76
2023/12/19 02:19:56;;;;;;;0.30;0.20;;;2.80;99.90;;;;;;5072706;28;20261;-78
2023/12/19 02:22:22;;;;;;;0.30;0.20;;;2.80;99.90;;;;;;5072640;28;20638;-79
2023/12/19 02:24:48;;;;;;;0.30;0.30;;;2.80;99.90;;;;;;5088016;28;20209;-78
2023/12/19 02:27:16;;;;;;;0.30;0.20;;;2.80;99.90;;;;;;5072587;28;20676;-77
2023/12/19 02:29:42;;;;;;;0.30;0.30;;;2.80;99.90;;;;;;5072494;28;20225;-77
2023/12/19 02:32:07;;;;;;;0.30;0.20;;;2.80;99.90;;;;;;5088111;28;20662;-78
2023/12/19 02:34:33;;;;;;;0.30;0.20;;;2.80;99.90;;;;;;5072381;28;20200;-76
2023/12/19 02:36:59;;;;;;;0.30;0.20;;;2.80;99.90;;;;;;5072197;28;20172;-78
2023/12/19 02:39:24;;;;;;;0.30;0.20;;;2.90;99.90;;;;;;5072429;28;20189;-78
2023/12/19 02:41:50;;;;;;;0.30;0.20;;;2.90;99.90;;;;;;5072072;28;20257;-78
2023/12/19 02:44:16;;;;;;;0.30;0.30;;;2.80;99.90;;;;;;5088015;28;20365;-78
2023/12/19 02:46:41;;;;;;;0.30;0.20;;;2.80;99.90;;;;;;5071118;28;20332;-78
2023/12/19 02:49:07;;;;;;;0.30;0.30;;;2.80;99.90;;;;;;5072734;28;20951;-77
2023/12/19 02:51:33;;;;;;;0.30;0.20;;;2.70;99.90;;;;;;5087137;28;20177;-78
2023/12/19 02:53:59;;;;;;;0.30;0.30;;;2.70;99.90;;;;;;5071870;28;20702;-77
2023/12/19 02:56:25;;;;;;;0.30;0.20;;;2.70;99.90;;;;;;5071896;28;20181;-79
2023/12/19 02:58:51;;;;;;;0.30;0.30;;;2.60;99.90;;;;;;5071622;28;20189;-77
2023/12/19 03:01:17;;;;;;;0.30;0.20;;;2.50;99.90;;;;;;5070366;28;20185;-77
2023/12/19 03:03:43;;;;;;;0.40;0.40;;;2.50;99.90;;;;;;5072347;28;20196;-77
2023/12/19 03:06:10;;;;;;;0.30;0.20;;;2.40;99.90;;;;;;5070453;28;20381;-78
2023/12/19 03:08:35;;;;;;;0.30;0.20;;;2.40;99.90;;;;;;5071962;28;20403;-77
2023/12/19 03:11:02;;;;;;;0.30;0.20;;;2.30;99.90;;;;;;5071522;28;20187;-77
2023/12/19 03:13:27;;;;;;;0.30;0.30;;;2.30;99.90;;;;;;5071342;28;20539;-78
2023/12/19 03:15:53;;;;;;;0.30;0.30;;;2.20;99.90;;;;;;5086896;28;20343;-76
2023/12/19 03:18:24;;;;;;;0.30;0.20;;;2.10;99.90;;;;;;5071744;28;20229;-77
2023/12/19 03:20:51;;;;;;;0.30;0.30;;;2.10;99.90;;;;;;5071223;28;20603;-78
2023/12/19 03:23:18;;;;;;;0.30;0.20;;;2.00;99.90;;;;;;5087194;28;20201;-78
2023/12/19 03:25:44;;;;;;;0.30;0.20;;;1.90;99.90;;;;;;5071241;28;20177;-77
2023/12/19 03:28:10;;;;;;;0.30;0.20;;;1.90;99.90;;;;;;5071959;28;20208;-79
2023/12/19 03:30:35;;;;;;;0.33;0.20;;;1.80;99.90;;;;;;5069754;28;20185;-79
2023/12/19 03:33:01;;;;;;;0.30;0.20;;;1.80;99.90;;;;;;5071573;28;20217;-77
2023/12/19 03:35:27;;;;;;;0.30;0.20;;;1.80;99.90;;;;;;5086729;28;20182;-76
2023/12/19 03:37:52;;;;;;;0.30;0.30;;;1.70;99.90;;;;;;5071476;28;20556;-76
2023/12/19 03:40:19;;;;;;;0.30;0.30;;;1.60;99.90;;;;;;5071080;28;20185;-79
2023/12/19 03:42:45;;;;;;;0.30;0.30;;;1.60;99.90;;;;;;5071274;28;20652;-77
2023/12/19 03:45:11;;;;;;;0.30;0.20;;;1.60;99.90;;;;;;5085455;28;20283;-77
2023/12/19 03:47:38;;;;;;;0.30;0.30;;;1.60;99.90;;;;;;5086281;28;20429;-76
2023/12/19 03:50:05;;;;;;;0.30;0.30;;;1.60;99.90;;;;;;5070866;28;20272;-77
2023/12/19 03:52:31;;;;;;;0.30;0.30;;;1.50;99.90;;;;;;5070985;28;20196;-79
2023/12/19 03:54:56;;;;;;;0.30;0.30;;;1.50;99.90;;;;;;5086377;28;20182;-78
2023/12/19 03:57:22;;;;;;;0.30;0.30;;;1.40;99.90;;;;;;5070762;28;20173;-78
2023/12/19 03:59:47;;;;;;;0.30;0.30;;;1.40;99.90;;;;;;5070795;28;20203;-77
2023/12/19 04:02:13;;;;;;;0.30;0.30;;;1.30;99.90;;;;;;5086334;28;20264;-77
2023/12/19 04:04:39;;;;;;;0.30;0.30;;;1.30;99.90;;;;;;5070656;28;20205;-77
2023/12/19 04:07:05;;;;;;;0.30;0.30;;;1.30;99.90;;;;;;5085944;28;20388;-77
2023/12/19 04:09:31;;;;;;;0.30;0.30;;;1.30;99.90;;;;;;5086392;28;20202;-76
2023/12/19 04:12:01;;;;;;;0.30;0.30;;;1.30;99.90;;;;;;5069401;28;20226;-76
2023/12/19 04:14:28;;;;;;;0.30;0.30;;;1.20;99.90;;;;;;5070029;28;20681;-76
2023/12/19 04:16:53;;;;;;;0.30;0.30;;;1.20;99.90;;;;;;5068767;28;20173;-76
2023/12/19 04:19:21;;;;;;;0.30;0.30;;;1.10;99.90;;;;;;5070542;28;20241;-78
2023/12/19 04:21:47;;;;;;;0.30;0.30;;;1.10;99.90;;;;;;5085337;28;20173;-78
2023/12/19 04:24:13;;;;;;;0.30;0.30;;;1.10;99.90;;;;;;5070531;28;20324;-77
2023/12/19 04:26:38;;;;;;;0.30;0.30;;;1.00;99.90;;;;;;5085413;28;20184;-77
2023/12/19 04:29:04;;;;;;;0.30;0.30;;;1.00;99.90;;;;;;5070668;28;20192;-76
2023/12/19 04:31:30;;;;;;;0.30;0.30;;;1.00;99.90;;;;;;5068552;28;20779;-78
2023/12/19 04:33:55;;;;;;;0.30;0.30;;;1.00;99.90;;;;;;5070032;28;20239;-76
2023/12/19 04:36:21;;;;;;;0.30;0.30;;;0.90;99.90;;;;;;5070050;28;20189;-76
2023/12/19 04:38:47;;;;;;;0.30;0.30;;;0.90;99.90;;;;;;5085624;28;20206;-78
2023/12/19 04:41:12;;;;;;;0.30;0.20;;;0.90;99.90;;;;;;5068689;28;20185;-78
2023/12/19 04:43:38;;;;;;;0.30;0.30;;;0.90;99.90;;;;;;5085522;28;20224;-77
2023/12/19 04:46:08;;;;;;;0.30;0.30;;;0.90;99.90;;;;;;5069803;28;20169;-79
2023/12/19 04:48:34;;;;;;;0.30;0.30;;;0.90;99.90;;;;;;5068916;28;20532;-77
2023/12/19 04:51:00;;;;;;;0.30;0.30;;;0.80;99.90;;;;;;5068010;28;20177;-77
2023/12/19 04:53:26;;;;;;;0.30;0.30;;;0.80;99.90;;;;;;5070085;28;20222;-78
2023/12/19 04:55:51;;;;;;;0.30;0.30;;;0.80;99.90;;;;;;5085010;28;20177;-78
2023/12/19 04:58:17;;;;;;;0.30;0.30;;;0.80;99.90;;;;;;5069928;28;20201;-77
2023/12/19 05:00:43;;;;;;;0.30;0.30;;;0.80;99.90;;;;;;5069795;28;20310;-77
2023/12/19 05:03:09;;;;;;;0.30;0.30;;;0.80;99.90;;;;;;5068481;28;20204;-78
2023/12/19 05:05:35;;;;;;;0.30;0.30;;;0.80;99.90;;;;;;5068106;28;20386;-78
2023/12/19 05:08:01;;;;;;;0.30;0.30;;;0.80;99.90;;;;;;5069104;28;20441;-76
2023/12/19 05:10:26;;;;;;;0.30;0.30;;;0.80;99.90;;;;;;5068839;28;20169;-76
2023/12/19 05:12:52;;;;;;;0.30;0.30;;;0.80;99.90;;;;;;5084330;28;20239;-76
2023/12/19 05:15:17;;;;;;;0.30;0.30;;;0.80;99.90;;;;;;5067308;28;20715;-78
2023/12/19 05:17:43;;;;;;;0.30;0.30;;;0.80;99.90;;;;;;5084413;28;20233;-76
2023/12/19 05:20:09;;;;;;;0.30;0.30;;;0.80;99.90;;;;;;5089994;28;20180;-76
2023/12/19 05:22:35;;;;;;;0.30;0.30;;;0.80;99.90;;;;;;5094572;28;20721;-79
2023/12/19 05:25:00;;;;;;;0.30;0.30;;;0.80;99.90;;;;;;5091245;28;20165;-78
2023/12/19 05:27:26;;;;;;;0.90;0.90;;;0.80;99.90;;;;;;5098023;28;20700;-78
2023/12/19 05:29:53;;;;;;;0.30;0.30;;;0.80;99.90;;;;;;5093850;28;20200;-76
2023/12/19 05:32:18;;;;;;;0.30;0.28;;;0.80;99.90;;;;;;5081939;28;20183;-78
2023/12/19 05:34:44;;;;;;;0.30;0.30;;;0.80;99.90;;;;;;5060385;28;20204;-76
2023/12/19 05:37:10;;;;;;;0.30;0.30;;;0.80;99.90;;;;;;5061364;28;20264;-76
2023/12/19 05:39:35;;;;;;;0.30;0.30;;;0.80;99.90;;;;;;5062339;28;22316;-78
2023/12/19 05:42:01;;;;;;;0.30;0.20;;;0.80;99.90;;;;;;5063482;28;20187;-78
2023/12/19 05:44:27;;;;;;;0.30;0.30;;;0.80;99.90;;;;;;5062075;28;21763;-78
2023/12/19 05:46:53;;;;;;;0.30;0.20;;;0.80;99.90;;;;;;5058609;28;20180;-78
2023/12/19 05:49:18;;;;;;;0.30;0.30;;;0.80;99.90;;;;;;5056582;28;20195;-76
2023/12/19 05:51:44;;;;;;;0.30;0.30;;;0.80;99.90;;;;;;5058722;28;20649;-77
2023/12/19 05:54:10;;;;;;;0.30;0.30;;;0.80;99.90;;;;;;5057768;28;20226;-78
2023/12/19 05:56:36;;;;;;;4.40;4.30;;;0.80;99.90;;;;;;5084695;28;20395;-76
2023/12/19 05:59:02;;;;;;;0.30;0.20;;;0.80;99.90;;;;;;5086830;28;20566;-78
2023/12/19 06:01:28;;;;;;;0.30;0.30;;;0.80;99.90;;;;;;5084037;28;20184;-78
2023/12/19 06:03:54;;;;;;;0.30;0.30;;;0.80;99.90;;;;;;5089160;28;20449;-78
2023/12/19 06:06:20;;;;;;;0.30;0.30;;;0.80;99.90;;;;;;5093096;28;20203;-77
2023/12/19 06:08:46;;;;;;;0.30;0.20;;;0.70;99.90;;;;;;5065421;28;20250;-78
2023/12/19 06:11:12;;;;;;;0.30;0.30;;;0.70;99.90;;;;;;5086936;28;20412;-77
2023/12/19 06:13:39;;;;;;;0.30;0.30;;;0.70;99.90;;;;;;5096610;28;20212;-77
2023/12/19 06:16:05;;;;;;;0.30;0.30;;;0.70;99.90;;;;;;5088616;28;20289;-76
2023/12/19 06:18:32;;;;;;;0.30;0.30;;;0.70;99.90;;;;;;5079293;28;20420;-77
2023/12/19 06:20:59;;;;;;;0.30;0.30;;;0.70;99.90;;;;;;5080174;28;20176;-77
2023/12/19 06:23:29;;;;;;;0.30;0.30;;;0.70;99.90;;;;;;5087231;28;20206;-77
2023/12/19 06:25:54;;;;;;;0.30;0.30;;;0.60;99.90;;;;;;5065347;28;21594;-78
2023/12/19 06:28:20;;;;;;;0.30;0.30;;;0.60;99.90;;;;;;5083634;28;20219;-76
2023/12/19 06:30:46;;;;;;;0.30;0.30;;;0.60;99.90;;;;;;5089575;28;20408;-78
2023/12/19 06:33:11;;;;;;;0.30;0.30;;;0.60;99.90;;;;;;5078268;28;20310;-78
2023/12/19 06:35:42;;;;;;;0.30;0.30;;;0.60;99.90;;;;;;5095491;28;20242;-78
2023/12/19 06:38:08;;;;;;;0.30;0.30;;;0.60;99.90;;;;;;5089989;28;20211;-76
2023/12/19 06:40:35;;;;;;;0.30;0.30;;;0.60;99.90;;;;;;5088717;28;20649;-76
2023/12/19 06:43:03;;;;;;;0.30;0.20;;;0.60;99.90;;;;;;5089399;28;20200;-78
2023/12/19 06:45:29;;;;;;;0.30;0.30;;;0.60;99.90;;;;;;5090332;28;20183;-76
2023/12/19 06:47:54;;;;;;;0.30;0.20;;;0.60;99.90;;;;;;5086971;28;20200;-77
2023/12/19 06:50:20;;;;;;;0.30;0.30;;;0.60;99.90;;;;;;5085444;28;20179;-76
2023/12/19 06:52:46;;;;;;;0.30;0.30;;;0.60;99.90;;;;;;5083673;28;20219;-76
2023/12/19 06:55:12;;;;;;;0.30;0.30;;;0.60;99.90;;;;;;5077984;28;20249;-78
2023/12/19 06:57:38;;;;;;;0.30;0.20;;;0.60;99.90;;;;;;5062255;28;20408;-76
2023/12/19 07:00:06;;;;;;;0.30;0.30;;;0.50;99.90;;;;;;5076198;28;20390;-76
2023/12/19 07:02:32;;;;;;;0.30;0.30;;;0.60;99.90;;;;;;5082987;28;20410;-76
2023/12/19 07:04:58;;;;;;;0.30;0.30;;;0.60;99.90;;;;;;5064662;28;20230;-77
2023/12/19 07:07:24;;;;;;;0.30;0.30;;;0.60;99.90;;;;;;5087667;28;20882;-78
2023/12/19 07:09:50;;;;;;;0.30;0.30;;;0.60;99.90;;;;;;5083691;28;20337;-77
2023/12/19 07:12:15;;;;;;;0.30;0.30;;;0.60;99.90;;;;;;5084929;28;20661;-76
2023/12/19 07:14:41;;;;;;;0.30;0.30;;;0.50;99.90;;;;;;5084935;28;20204;-77
2023/12/19 07:17:07;;;;;;;0.30;0.30;;;0.50;99.90;;;;;;5090711;28;20695;-77
2023/12/19 07:19:33;;;;;;;0.30;0.30;;;0.50;99.90;;;;;;5082649;28;20426;-78
2023/12/19 07:22:00;;;;;;;0.30;0.30;;;0.50;99.90;;;;;;5079679;28;20399;-76
2023/12/19 07:24:27;;;;;;;0.30;0.30;;;0.50;99.90;;;;;;5070949;28;20210;-79
2023/12/19 07:26:57;;;;;;;0.30;0.30;;;0.50;99.90;;;;;;5088172;28;20172;-79
2023/12/19 07:29:22;;;;;;;0.30;0.30;;;0.50;99.90;;;;;;5090848;28;20188;-77
2023/12/19 07:31:48;;;;;;;0.30;0.30;;;0.60;99.90;;;;;;5090230;28;20228;-77
2023/12/19 07:34:14;;;;;;;0.30;0.30;;;0.60;99.90;;;;;;5086048;28;20680;-77
2023/12/19 07:36:40;;;;;;;0.30;0.30;;;0.60;99.90;;;;;;5081617;28;20186;-77
2023/12/19 07:39:06;;;;;;;0.30;0.30;;;0.60;99.90;;;;;;5081372;28;20572;-77
2023/12/19 07:41:33;;;;;;;0.30;0.30;;;0.60;99.90;;;;;;5088817;28;20725;-79
2023/12/19 07:43:59;;;;;;;0.30;0.30;;;0.60;99.90;;;;;;5081102;28;20704;-78
2023/12/19 07:46:26;;;;;;;0.30;0.30;;;0.60;99.90;;;;;;5085391;28;20184;-78
2023/12/19 07:48:51;;;;;;;0.30;0.30;;;0.70;99.90;;;;;;5077280;28;20214;-77
2023/12/19 07:51:23;;;;;;;0.30;0.30;;;0.80;99.90;;;;;;5088206;28;20176;-77
2023/12/19 07:53:49;;;;;;;0.30;0.30;;;0.90;99.90;;;;;;5083150;28;21852;-77
2023/12/19 07:56:14;;;;;;;0.30;0.30;;;0.90;99.90;;;;;;5083878;28;20190;-77
2023/12/19 07:58:40;;;;;;;0.30;0.30;;;1.00;99.90;;;;;;5076473;28;20704;-77
2023/12/19 08:01:10;;;;;;;0.30;0.30;;;1.00;99.90;;;;;;5081728;28;20338;-79
2023/12/19 08:03:35;;;;;;;0.30;0.30;;;1.00;99.90;;;;;;5080937;28;20445;-79
2023/12/19 08:06:01;;;;;;;0.30;0.30;;;1.00;99.90;;;;;;5089975;28;20231;-79
2023/12/19 08:08:26;;;;;;;0.30;0.30;;;1.00;99.90;;;;;;5086245;28;20211;-79
2023/12/19 08:10:53;;;;;;;0.30;0.23;;;1.00;99.90;;;;;;5089974;28;20650;-78
2023/12/19 08:13:21;;;;;;;0.30;0.30;;;1.10;99.90;;;;;;5085964;28;20577;-77
2023/12/19 08:15:48;;;;;;;0.40;0.30;;;1.20;99.90;;;;;;5089688;28;20180;-79
2023/12/19 08:18:14;;;;;;;0.30;0.28;;;1.30;99.90;;;;;;5084983;28;20565;-78
2023/12/19 08:20:40;;;;;;;0.30;0.30;;;1.40;99.90;;;;;;5082017;28;20187;-78
2023/12/19 08:23:07;;;;;;;13.57;7.20;;;1.40;99.90;;;;;;5098293;27;20200;-76
2023/12/19 08:25:33;;;;;;;0.30;0.30;;;1.50;99.90;;;;;;5052439;28;20188;-76
2023/12/19 08:27:59;;;;;;;0.30;0.30;;;1.50;99.90;;;;;;5067213;28;20210;-79
2023/12/19 08:30:27;;;;;;;0.30;0.30;;;1.60;99.90;;;;;;5076751;28;20407;-80
2023/12/19 08:32:54;;;;;;;0.30;0.30;;;1.70;99.90;;;;;;5073755;28;20462;-79
2023/12/19 08:35:20;;;;;;;0.30;0.30;;;1.80;99.90;;;;;;5082935;28;20180;-79
2023/12/19 08:37:46;;;;;;;0.30;0.30;;;1.90;99.90;;;;;;5077215;28;20200;-78
2023/12/19 08:40:12;;;;;;;0.30;0.20;;;2.00;99.90;;;;;;5086292;28;20225;-78
2023/12/19 08:42:39;;;;;;;0.30;0.30;;;2.00;99.90;;;;;;5080792;28;20792;-74
2023/12/19 08:45:05;;;;;;;0.30;0.30;;;2.00;99.90;;;;;;5073571;28;20261;-75
2023/12/19 08:47:31;;;;;;;0.30;0.30;;;2.10;99.90;;;;;;5080313;28;20184;-75
2023/12/19 08:49:59;;;;;;;0.30;0.30;;;2.00;99.90;;;;;;5080734;28;20255;-82
2023/12/19 08:52:26;;;;;;;0.30;0.30;;;2.10;99.90;;;;;;5090481;28;20180;-75
2023/12/19 08:54:52;;;;;;;0.30;0.30;;;2.20;99.90;;;;;;5085562;28;20200;-81
2023/12/19 08:57:18;;;;;;;0.30;0.20;;;2.20;99.90;;;;;;5089787;27;20703;-80
2023/12/19 08:59:44;;;;;;;0.30;0.30;;;2.20;99.90;;;;;;5082662;28;20479;-81
2023/12/19 09:02:10;;;;;;;0.40;0.40;;;2.20;99.90;;;;;;5091920;28;20180;-74
2023/12/19 09:04:36;;;;;;;0.30;0.20;;;2.40;99.90;;;;;;5085904;28;20600;-75
2023/12/19 09:07:02;;;;;;;0.30;0.30;;;2.50;99.90;;;;;;5079511;28;20180;-76
2023/12/19 09:09:28;;;;;;;0.30;0.30;;;2.60;99.90;;;;;;5078403;28;20257;-81
2023/12/19 09:11:57;;;;;;;134.57;126.07;;;2.70;99.90;;;;;;5078241;28;20191;-75
2023/12/19 09:14:23;;;;;;;0.30;0.30;;;2.80;99.90;;;;;;5055370;28;20227;-82
2023/12/19 09:16:49;;;;;;;0.30;0.30;;;3.00;99.90;;;;;;5055854;28;20636;-75
2023/12/19 09:19:17;;;;;;;3.60;1.52;;;3.10;99.90;;;;;;5056376;28;20239;-75
2023/12/19 09:21:43;;;;;;;0.35;0.30;;;3.20;99.90;;;;;;5060233;28;20169;-77
2023/12/19 09:24:09;;;;;;;0.30;0.30;;;3.40;99.90;;;;;;5061427;28;20227;-76
2023/12/19 09:26:38;;;;;;;0.30;0.20;;;3.60;99.90;;;;;;5069921;28;20169;-80
2023/12/19 09:29:05;;;;;;;0.30;0.30;;;3.70;99.90;;;;;;5087524;28;20826;-75
2023/12/19 09:31:30;;;;;;;0.30;0.20;;;3.70;99.90;;;;;;5083510;28;20200;-75
2023/12/19 09:33:56;;;;;;;0.30;0.30;;;3.70;99.90;;;;;;5085520;28;20254;-76
2023/12/19 09:36:26;;;;;;;0.30;0.20;;;3.70;99.90;;;;;;5104139;28;20228;-75
2023/12/19 09:38:51;;;;;;;0.30;0.30;;;3.70;99.90;;;;;;5088625;28;20445;-76
2023/12/19 09:41:18;;;;;;;0.30;0.30;;;3.60;99.90;;;;;;5089801;28;20170;-76
2023/12/19 09:43:44;;;;;;;0.30;0.30;;;3.60;99.90;;;;;;5090678;28;20203;-77
2023/12/19 09:46:11;;;;;;;0.30;0.30;;;3.60;99.90;;;;;;5090761;28;20180;-76
2023/12/19 09:48:37;;;;;;;0.30;0.30;;;3.60;99.90;;;;;;5092828;28;20825;-76
2023/12/19 09:51:04;;;;;;;0.30;0.30;;;3.60;99.90;;;;;;5084495;28;20184;-77
2023/12/19 09:53:34;;;;;;;0.30;0.20;;;3.60;99.90;;;;;;5081035;28;20359;-77
2023/12/19 09:56:00;;;;;;;0.30;0.30;;;3.60;99.90;;;;;;5080986;28;20658;-77
2023/12/19 09:58:31;;;;;;;0.30;0.30;;;3.70;99.90;;;;;;5088194;28;20204;-80
2023/12/19 10:00:58;;;;;;;0.30;0.30;;;3.70;99.90;;;;;;5085179;28;20702;-77
2023/12/19 10:03:25;;;;;;;0.30;0.30;;;3.80;99.90;;;;;;5082881;28;20582;-82
2023/12/19 10:05:50;;;;;;;0.30;0.25;;;3.80;99.90;;;;;;5085555;28;20200;-82
2023/12/19 10:08:17;;;;;;;0.30;0.30;;;3.80;99.90;;;;;;5083512;28;20754;-75
2023/12/19 10:10:50;;;;;;;0.30;0.20;;;3.80;99.90;;;;;;5078776;28;20215;-82
2023/12/19 10:13:30;;;;;;;0.30;0.30;;;3.90;99.90;;;;;;5067583;28;20577;-76
2023/12/19 10:16:17;;;;;;;0.30;0.30;;;3.90;99.90;;;;;;5080617;28;20173;-74
2023/12/19 10:18:47;;;;;;;0.30;0.20;;;3.90;99.90;;;;;;5079805;28;20231;-82
2023/12/19 10:21:14;;;;;;;0.30;0.30;;;4.00;99.90;;;;;;5092872;28;20447;-81
2023/12/19 10:23:40;;;;;;;0.30;0.20;;;4.00;99.90;;;;;;5089503;28;20203;-75
2023/12/19 10:26:07;;;;;;;0.30;0.20;;;4.00;99.90;;;;;;5082825;28;20630;-74
2023/12/19 10:28:34;;;;;;;0.30;0.30;;;4.00;99.90;;;;;;5067985;28;20199;-75
2023/12/19 10:31:15;;;;;;;10.65;10.10;;;4.00;99.90;;;;;;5059039;28;20276;-82
2023/12/19 10:33:54;;;;;;;0.30;0.30;;;4.00;99.90;;;;;;5077972;28;20250;-81
2023/12/19 10:36:26;;;;;;;0.30;0.30;;;4.10;99.90;;;;;;5078250;28;20188;-79
2023/12/19 10:38:53;;;;;;;0.30;0.30;;;4.10;99.90;;;;;;5088212;28;20200;-74
2023/12/19 10:41:26;;;;;;;0.30;0.20;;;4.10;99.90;;;;;;5091174;28;20182;-75
2023/12/19 10:43:57;;;;;;;0.30;0.20;;;4.10;99.90;;;;;;5094197;28;20286;-74
2023/12/19 10:46:32;;;;;;;0.30;0.30;;;4.10;99.90;;;;;;5087391;28;20633;-79
2023/12/19 10:49:03;;;;;;;0.30;0.30;;;4.10;99.90;;;;;;5094028;28;20227;-81
2023/12/19 10:51:37;;;;;;;0.30;0.20;;;4.20;99.90;;;;;;5089722;28;20181;-75
2023/12/19 10:54:10;;;;;;;0.30;0.30;;;4.20;99.90;;;;;;5084598;28;20220;-75
2023/12/19 10:57:04;;;;;;;0.30;0.20;;;4.30;99.90;;;;;;5066847;28;20271;-73
2023/12/19 10:59:57;;;;;;;0.30;0.30;;;4.30;99.90;;;;;;5091917;28;20199;-81
2023/12/19 11:02:40;;;;;;;0.30;0.30;;;4.30;99.90;;;;;;5087688;28;20184;-77
2023/12/19 11:05:31;;;;;;;0.30;0.30;;;4.40;99.90;;;;;;5085154;28;20165;-79
2023/12/19 11:08:06;;;;;;;0.30;0.30;;;4.40;99.90;;;;;;5090962;28;20767;-74
2023/12/19 11:10:37;;;;;;;0.30;0.30;;;4.40;99.90;;;;;;5088315;28;20168;-75
2023/12/19 11:13:04;;;;;;;0.30;0.20;;;4.40;99.90;;;;;;5085695;28;20219;-75
2023/12/19 11:15:31;;;;;;;0.30;0.30;;;4.50;99.90;;;;;;5093049;28;20187;-79
2023/12/19 11:18:05;;;;;;;0.30;0.20;;;4.50;99.90;;;;;;5086420;28;20240;-78
2023/12/19 11:20:40;;;;;;;0.30;0.20;;;4.50;99.90;;;;;;5094184;28;20176;-80
2023/12/19 11:23:06;;;;;;;0.30;0.20;;;4.50;99.90;;;;;;5096878;28;20253;-81
2023/12/19 11:25:37;;;;;;;0.30;0.20;;;4.50;99.90;;;;;;5093983;28;20179;-81
2023/12/19 11:28:04;;;;;;;0.45;0.45;;;4.50;99.90;;;;;;5091093;28;20267;-81
2023/12/19 11:30:43;;;;;;;0.30;0.30;;;4.50;99.90;;;;;;5099357;28;20606;-80
2023/12/19 11:33:13;;;;;;;0.30;0.30;;;4.50;99.90;;;;;;5089326;28;20603;-81
2023/12/19 11:35:41;;;;;;;0.30;0.30;;;4.50;99.90;;;;;;5094596;28;20303;-80
2023/12/19 11:38:16;;;;;;;3.45;3.22;;;4.50;99.90;;;;;;5096592;28;20675;-81
2023/12/19 11:40:45;;;;;;;0.30;0.20;;;4.50;99.90;;;;;;5084302;28;20175;-81
2023/12/19 11:43:31;;;;;;;0.30;0.20;;;4.50;99.90;;;;;;5082511;28;20204;-81
2023/12/19 11:46:03;;;;;;;0.30;0.28;;;4.60;99.90;;;;;;5072353;28;20207;-81
2023/12/19 11:48:50;;;;;;;0.30;0.20;;;4.80;99.90;;;;;;5070249;28;20378;-81
2023/12/19 11:51:46;;;;;;;0.30;0.20;;;4.90;99.90;;;;;;5076470;28;20175;-81
2023/12/19 11:54:13;;;;;;;0.30;0.20;;;5.00;99.90;;;;;;5073505;28;20820;-81
2023/12/19 11:56:43;;;;;;;0.30;0.30;;;5.10;99.90;;;;;;5088366;28;20180;-81
2023/12/19 11:59:09;;;;;;;0.35;0.32;;;5.30;99.90;;;;;;5078386;28;20572;-80
2023/12/19 12:01:42;;;;;;;0.30;0.30;;;5.40;99.90;;;;;;5076355;28;20192;-80
2023/12/19 12:04:10;;;;;;;0.30;0.30;;;5.60;99.90;;;;;;5070883;28;20460;-81
2023/12/19 12:06:37;;;;;;;0.30;0.20;;;5.70;99.90;;;;;;5056323;28;20191;-81
2023/12/19 12:09:05;;;;;;;0.30;0.20;;;5.90;99.90;;;;;;5067142;28;20641;-81
2023/12/19 12:11:47;;;;;;;0.30;0.20;;;6.00;99.90;;;;;;5082471;28;20421;-81
2023/12/19 12:14:14;;;;;;;1.52;1.52;;;6.20;99.90;;;;;;5077729;28;20230;-81
2023/12/19 12:16:40;;;;;;;0.65;0.65;;;6.30;99.90;;;;;;5054891;28;20555;-81
2023/12/19 12:19:14;;;;;;;7.97;7.60;;;6.50;99.90;;;;;;5054523;28;20266;-81
2023/12/19 12:21:50;;;;;;;0.30;0.20;;;6.60;99.90;;;;;;5051414;28;20364;-81
2023/12/19 12:24:25;;;;;;;0.30;0.20;;;6.80;99.90;;;;;;5054259;28;20329;-81
2023/12/19 12:27:05;;;;;;;0.30;0.20;;;6.90;99.90;;;;;;5086268;28;20648;-81
2023/12/19 12:29:36;;;;;;;1.60;1.50;;;7.00;99.90;;;;;;5064306;28;20208;-81
2023/12/19 12:32:03;;;;;;;0.30;0.30;;;7.10;99.90;;;;;;5084841;28;20168;-82
2023/12/19 12:34:32;;;;;;;5.47;3.85;;;7.20;99.90;;;;;;5086620;28;20854;-82
2023/12/19 12:36:58;;;;;;;0.47;0.47;;;7.30;99.90;;;;;;5085106;28;20189;-81
2023/12/19 12:39:23;;;;;;;0.30;0.27;;;7.30;99.90;;;;;;5084776;28;20200;-81
2023/12/19 12:41:49;;;;;;;0.30;0.20;;;7.30;99.90;;;;;;5089255;28;20403;-81
2023/12/19 12:44:15;;;;;;;0.30;0.30;;;7.40;99.90;;;;;;5085915;28;20188;-81
2023/12/19 12:46:47;;;;;;;2.93;2.73;;;7.40;99.90;;;;;;5087203;28;20715;-81
2023/12/19 12:49:19;;;;;;;0.43;0.40;;;7.40;99.90;;;;;;5076195;28;20452;-82
2023/12/19 12:51:46;;;;;;;0.30;0.20;;;7.40;99.90;;;;;;5081085;28;20179;-82
2023/12/19 12:54:17;;;;;;;0.60;0.60;;;7.40;99.90;;;;;;5066801;28;20230;-81
2023/12/19 12:56:43;;;;;;;0.30;0.20;;;7.40;99.90;;;;;;5052369;28;20768;-81
2023/12/19 12:59:13;;;;;;;1.77;1.67;;;7.40;99.90;;;;;;5084571;28;20575;-80